Flight Track Log - Related Links

Times and Time Zones

All times are in EDT time to prevent confusion due to time zone crossing. See the CSC8706 flight status page for this flight to view local times or setup timezone preferences in your user account.

Time Position Orientation Groundspeed Altitude Reporting Facility
EDT Latitude Longitude Course Direction KTS MPH feet Rate Location/Type
Sun 07:39:00 AM 23.0350 113.3685 314° West  Level Estimated
Sun 07:40:00 AM 23.1008 113.2942 314° West  Level Estimated
Sun 07:41:00 AM 23.1665 113.2199 314° West  Level Estimated
Sun 07:42:00 AM 23.2323 113.1455 314° West  Level Estimated
Sun 07:43:00 AM 23.2980 113.0711 314° West  Level Estimated
Sun 07:44:00 AM 23.3636 112.9965 314° West  Level Estimated
Sun 07:45:00 AM 23.4292 112.9219 314° West  Level Estimated
Sun 07:46:00 AM 23.4948 112.8472 314° West  Level Estimated
Sun 07:47:00 AM 23.5604 112.7725 314° West  Level Estimated
Sun 07:48:00 AM 23.6259 112.6976 314° West  Level Estimated
Sun 07:49:00 AM 23.6914 112.6227 314° West  Level Estimated
Sun 07:50:00 AM 23.7568 112.5478 314° West  Level Estimated
Sun 07:51:00 AM 23.8222 112.4727 314° West  Level Estimated
Sun 07:52:00 AM 23.8876 112.3976 314° West  Level Estimated
Sun 07:53:00 AM 23.9529 112.3224 314° West  Level Estimated
Sun 07:54:00 AM 24.0182 112.2471 314° West  Level Estimated
Sun 07:55:00 AM 24.0835 112.1717 313° West  Level Estimated
Sun 07:56:00 AM 24.1487 112.0963 313° West  Level Estimated
Sun 07:57:00 AM 24.2139 112.0208 313° West  Level Estimated
Sun 07:58:00 AM 24.2791 111.9452 313° West  Level Estimated
Sun 07:59:00 AM 24.3442 111.8695 313° West  Level Estimated
Sun 08:00:00 AM 24.4092 111.7937 313° West  Level Estimated
Sun 08:01:00 AM 24.4743 111.7179 313° West  Level Estimated
Sun 08:02:00 AM 24.5393 111.6420 313° West  Level Estimated
Sun 08:03:00 AM 24.6042 111.5660 313° West  Level Estimated
Sun 08:04:00 AM 24.6692 111.4900 313° West  Level Estimated
Sun 08:05:00 AM 24.7341 111.4138 313° West  Level Estimated
Sun 08:06:00 AM 24.7989 111.3376 313° West  Level Estimated
Sun 08:07:00 AM 24.8637 111.2613 313° West  Level Estimated
Sun 08:08:00 AM 24.9285 111.1849 313° West  Level Estimated
Sun 08:09:00 AM 24.9932 111.1085 313° West  Level Estimated
Sun 08:10:00 AM 25.0579 111.0319 313° West  Level Estimated
Sun 08:11:00 AM 25.1225 110.9553 313° West  Level Estimated
Sun 08:12:00 AM 25.1872 110.8786 313° West  Level Estimated
Sun 08:13:00 AM 25.2517 110.8018 313° West  Level Estimated
Sun 08:14:00 AM 25.3163 110.7250 313° West  Level Estimated
Sun 08:15:00 AM 25.3808 110.6480 313° West  Level Estimated
Sun 08:16:00 AM 25.4452 110.5710 313° West  Level Estimated
Sun 08:17:00 AM 25.5096 110.4939 313° West  Level Estimated
Sun 08:18:00 AM 25.5740 110.4167 313° West  Level Estimated
Sun 08:19:00 AM 25.6383 110.3394 313° West  Level Estimated
Sun 08:20:00 AM 25.7026 110.2620 313° West  Level Estimated
Sun 08:21:00 AM 25.7669 110.1846 313° West  Level Estimated
Sun 08:22:00 AM 25.8311 110.1070 313° West  Level Estimated
Sun 08:23:00 AM 25.8952 110.0294 313° West  Level Estimated
Sun 08:24:00 AM 25.9594 109.9517 313° West  Level Estimated
Sun 08:25:00 AM 26.0235 109.8740 313° West  Level Estimated
Sun 08:26:00 AM 26.0875 109.7961 312° West  Level Estimated
Sun 08:27:00 AM 26.1515 109.7181 312° West  Level Estimated
Sun 08:28:00 AM 26.2155 109.6401 312° West  Level Estimated
Sun 08:29:00 AM 26.2794 109.5620 312° West  Level Estimated
Sun 08:30:00 AM 26.3433 109.4838 312° West  Level Estimated
Sun 08:31:00 AM 26.4071 109.4055 312° West  Level Estimated
Sun 08:32:00 AM 26.4709 109.3271 312° West  Level Estimated
Sun 08:33:00 AM 26.5346 109.2486 312° West  Level Estimated
Sun 08:34:00 AM 26.5983 109.1701 312° West  Level Estimated
Sun 08:35:00 AM 26.6620 109.0914 312° West  Level Estimated
Sun 08:36:00 AM 26.7256 109.0127 312° West  Level Estimated
Sun 08:37:00 AM 26.7892 108.9339 312° West  Level Estimated
Sun 08:38:00 AM 26.8527 108.8549 312° West  Level Estimated
Sun 08:39:00 AM 26.9162 108.7759 312° West  Level Estimated
Sun 08:40:00 AM 26.9796 108.6969 312° West  Level Estimated
Sun 08:41:00 AM 27.0430 108.6177 312° West  Level Estimated
Sun 08:42:00 AM 27.1064 108.5384 312° West  Level Estimated
Sun 08:43:00 AM 27.1697 108.4591 312° West  Level Estimated
Sun 08:44:00 AM 27.2330 108.3796 312° West  Level Estimated
Sun 08:45:00 AM 27.2962 108.3001 312° West  Level Estimated
Sun 08:46:00 AM 27.3594 108.2205 312° West  Level Estimated
Sun 08:47:00 AM 27.4225 108.1407 312° West  Level Estimated
Sun 08:48:00 AM 27.4856 108.0609 312° West  Level Estimated
Sun 08:49:00 AM 27.5486 107.9810 312° West  Level Estimated
Sun 08:50:00 AM 27.6116 107.9010 312° West  Level Estimated
Sun 08:51:00 AM 27.6745 107.8210 312° West  Level Estimated
Sun 08:52:00 AM 27.7374 107.7408 312° West  Level Estimated
Sun 08:53:00 AM 27.8003 107.6605 312° West  Level Estimated
Sun 08:54:00 AM 27.8631 107.5802 311° West  Level Estimated
Sun 08:55:00 AM 27.9259 107.4997 311° West  Level Estimated
Sun 08:56:00 AM 27.9886 107.4192 311° West  Level Estimated
Sun 08:57:00 AM 28.0513 107.3385 311° West  Level Estimated
Sun 08:58:00 AM 28.1139 107.2578 311° West  Level Estimated
Sun 08:59:00 AM 28.1764 107.1769 311° West  Level Estimated
Sun 09:00:00 AM 28.2390 107.0960 311° West  Level Estimated
Sun 09:01:00 AM 28.3015 107.0150 311° West  Level Estimated
Sun 09:02:00 AM 28.3639 106.9339 311° West  Level Estimated
Sun 09:03:00 AM 28.4263 106.8527 311° West  Level Estimated
Sun 09:04:00 AM 28.4886 106.7714 311° West  Level Estimated
Sun 09:05:00 AM 28.5509 106.6900 311° West  Level Estimated
Sun 09:06:00 AM 28.6131 106.6085 311° West  Level Estimated
Sun 09:07:00 AM 28.6753 106.5269 311° West  Level Estimated
Sun 09:08:00 AM 28.7374 106.4452 311° West  Level Estimated
Sun 09:09:00 AM 28.7995 106.3634 311° West  Level Estimated
Sun 09:10:00 AM 28.8616 106.2815 311° West  Level Estimated
Sun 09:11:00 AM 28.9236 106.1995 311° West  Level Estimated
Sun 09:12:00 AM 28.9855 106.1174 311° West  Level Estimated
Sun 09:13:00 AM 29.0474 106.0353 311° West  Level Estimated
Sun 09:14:00 AM 29.1092 105.9530 311° West  Level Estimated
Sun 09:15:00 AM 29.1710 105.8706 311° West  Level Estimated
Sun 09:16:00 AM 29.2328 105.7881 311° West  Level Estimated
Sun 09:17:00 AM 29.2945 105.7056 311° West  Level Estimated
Sun 09:18:00 AM 29.3561 105.6229 311° West  Level Estimated
Sun 09:19:00 AM 29.4177 105.5401 311° West  Level Estimated
Sun 09:20:00 AM 29.4792 105.4572 310° West  Level Estimated
Sun 09:21:00 AM 29.5407 105.3743 310° West  Level Estimated
Sun 09:22:00 AM 29.6021 105.2912 310° West  Level Estimated
Sun 09:23:00 AM 29.6635 105.2080 310° West  Level Estimated
Sun 09:24:00 AM 29.7248 105.1247 310° West  Level Estimated
Sun 09:25:00 AM 29.7861 105.0413 310° West  Level Estimated
Sun 09:26:00 AM 29.8473 104.9578 310° West  Level Estimated
Sun 09:27:00 AM 29.9085 104.8743 310° West  Level Estimated
Sun 09:28:00 AM 29.9697 104.7906 310° West  Level Estimated
Sun 09:29:00 AM 30.0307 104.7068 310° West  Level Estimated
Sun 09:30:00 AM 30.0917 104.6229 310° West  Level Estimated
Sun 09:31:00 AM 30.1527 104.5389 310° West  Level Estimated
Sun 09:32:00 AM 30.2136 104.4548 310° West  Level Estimated
Sun 09:33:00 AM 30.2745 104.3706 310° West  Level Estimated
Sun 09:34:00 AM 30.3353 104.2863 310° West  Level Estimated
Sun 09:35:00 AM 30.3960 104.2019 310° West  Level Estimated
Sun 09:36:00 AM 30.4567 104.1173 310° West  Level Estimated
Sun 09:37:00 AM 30.5173 104.0327 310° West  Level Estimated
Sun 09:38:00 AM 30.5779 103.9480 310° West  Level Estimated
Sun 09:39:00 AM 30.5785 103.9471 310° West  Level Estimated
Sun 09:40:00 AM 30.5785 103.9471 North  Level Estimated
Sun 09:41:00 AM 30.5785 103.9471 North  Level Estimated
Sun 09:42:00 AM 30.5785 103.9471 North  Level Estimated
Sun 09:43:00 AM 30.5785 103.9471 North  Level Estimated
Sun 09:44:00 AM 30.5785 103.9471 North  Level Estimated
Sun 09:45:00 AM 30.5785 103.9471 North  Level Estimated
Sun 09:46:00 AM 30.5785 103.9471 North  Level Estimated
Sun 09:47:00 AM 30.5785 103.9471 North  Level Estimated
Sun 09:48:00 AM 30.5785 103.9471 North  Level Estimated
Sun 09:49:00 AM 30.5785 103.9471 North  Level Estimated
Sun 09:50:00 AM 30.5785 103.9471 North  Level Estimated
Sun 09:51:00 AM 30.5785 103.9471 North  Level Estimated
Sun 09:52:00 AM 30.5785 103.9471 North  Level Estimated
Sun 09:53:00 AM 30.5785 103.9471 North  Level Estimated
Sun 09:54:00 AM 30.5785 103.9471 North  Level Estimated

Login

Don't have an account? Register now (free) for customized features, flight alerts, and more!